Lancing, United Kingdom
Current Conditions -  °F | °C
As of 7:50 PM on Thursday 18 Dec 2014 (Local Time) from EGKA Reporting Station
Broken Clouds Broken Clouds  
Wind Chill: 54°   Ceiling: 1100
Heat Index: 54°   Visibility: 6mi
Dew Point: 50°   Wind: 25mph
Humidity: 88%   Direction: 240°WSW
Pressure: 29.91"   Gusts: 37mph
Location:  50.83°N, 0.33°W
Report Text: EGKA 181950Z 24022G32KT 9999 BKN011 12/10 Q1013
Loading
Personal Weather Stations






























Interactive Weather Map New forecast layout! Learn more

10-Day Weather Forecast

Advertisements
Track Severe Weather on mobile